createdAt,value
2022-09-11T00:01:40.332Z,0.98
2022-09-11T00:04:09.622Z,1.58
2022-09-11T00:06:38.736Z,1.30
2022-09-11T00:09:08.158Z,0.63
2022-09-11T00:11:39.620Z,2.65
2022-09-11T00:14:11.364Z,1.35
2022-09-11T00:16:41.273Z,0.47
2022-09-11T00:19:11.148Z,1.60
2022-09-11T00:21:39.928Z,3.10
2022-09-11T00:24:10.103Z,1.08
2022-09-11T00:26:38.924Z,0.80
2022-09-11T00:29:08.137Z,1.25
2022-09-11T00:31:38.277Z,1.95
2022-09-11T00:34:07.975Z,1.90
2022-09-11T00:36:41.243Z,1.63
2022-09-11T00:39:09.854Z,2.53
2022-09-11T00:41:39.358Z,1.17
2022-09-11T00:44:08.845Z,2.25
2022-09-11T00:46:42.072Z,0.98
2022-09-11T00:49:17.888Z,1.90
2022-09-11T00:51:47.730Z,1.20
2022-09-11T00:54:18.001Z,1.67
2022-09-11T00:56:47.512Z,4.68
2022-09-11T00:59:16.421Z,1.25
2022-09-11T01:01:46.410Z,1.50
2022-09-11T01:04:15.141Z,2.80
2022-09-11T01:06:43.703Z,1.23
2022-09-11T01:09:12.301Z,3.45
2022-09-11T01:11:46.256Z,1.02
2022-09-11T01:14:22.516Z,0.98
2022-09-11T01:16:54.458Z,1.95
2022-09-11T01:19:29.281Z,1.52
2022-09-11T01:22:15.299Z,1.17
2022-09-11T01:24:51.150Z,2.15
2022-09-11T01:27:38.053Z,0.73
2022-09-11T01:30:11.460Z,2.25
2022-09-11T01:32:47.093Z,0.75
2022-09-11T01:35:19.393Z,2.03
2022-09-11T01:37:53.058Z,2.97
2022-09-11T01:40:24.310Z,2.38
2022-09-11T01:42:55.786Z,0.88
2022-09-11T01:45:25.662Z,2.42
2022-09-11T01:47:54.465Z,2.00
2022-09-11T01:50:23.949Z,1.67
2022-09-11T01:52:53.570Z,2.75
2022-09-11T01:55:24.596Z,2.65
2022-09-11T01:57:57.674Z,1.98
2022-09-11T02:00:27.152Z,0.93
2022-09-11T02:02:57.983Z,1.38
2022-09-11T02:05:29.510Z,1.75
2022-09-11T02:08:01.609Z,1.75
2022-09-11T02:10:33.296Z,2.60
2022-09-11T02:13:07.075Z,2.05
2022-09-11T02:15:40.705Z,2.45
2022-09-11T02:18:13.204Z,1.75
2022-09-11T02:20:45.412Z,1.27
2022-09-11T02:23:14.020Z,1.67
2022-09-11T02:25:42.713Z,1.45
2022-09-11T02:28:13.117Z,1.95
2022-09-11T02:30:44.002Z,0.73
2022-09-11T02:33:29.557Z,1.63
2022-09-11T02:36:01.935Z,1.30
2022-09-11T02:38:34.819Z,1.20
2022-09-11T02:41:09.186Z,2.17
2022-09-11T02:43:44.989Z,1.63
2022-09-11T02:46:23.769Z,1.40
2022-09-11T02:48:58.186Z,0.98
2022-09-11T02:51:32.139Z,2.45
2022-09-11T02:54:07.773Z,2.42
2022-09-11T02:56:41.398Z,1.00
2022-09-11T02:59:15.277Z,1.95
2022-09-11T03:01:48.174Z,2.65
2022-09-11T03:04:18.321Z,1.33
2022-09-11T03:06:49.949Z,3.85
2022-09-11T03:09:18.684Z,2.13
2022-09-11T03:11:50.172Z,1.95
2022-09-11T03:14:20.186Z,1.50
2022-09-11T03:16:50.047Z,4.05
2022-09-11T03:19:20.161Z,2.15
2022-09-11T03:21:48.757Z,1.98
2022-09-11T03:24:17.517Z,2.72
2022-09-11T03:26:47.682Z,3.25
2022-09-11T03:29:20.027Z,1.92
2022-09-11T03:31:48.812Z,1.60
2022-09-11T03:34:18.017Z,5.57
2022-09-11T03:36:48.050Z,5.10
2022-09-11T03:39:16.836Z,3.03
2022-09-11T03:41:45.608Z,3.03
2022-09-11T03:44:14.117Z,2.42
2022-09-11T03:46:44.059Z,2.35
2022-09-11T03:49:12.820Z,2.45
2022-09-11T03:51:41.596Z,1.67
2022-09-11T03:54:10.155Z,1.40
2022-09-11T03:56:38.771Z,1.35
2022-09-11T03:59:07.926Z,1.40
2022-09-11T04:01:37.632Z,0.80
2022-09-11T04:04:07.660Z,1.75
2022-09-11T04:06:41.108Z,2.70
2022-09-11T04:09:10.063Z,1.45
2022-09-11T04:11:38.979Z,0.73
2022-09-11T04:14:14.462Z,1.48
2022-09-11T04:16:44.084Z,3.40
2022-09-11T04:19:14.809Z,1.58
2022-09-11T04:21:45.431Z,2.80
2022-09-11T04:24:15.418Z,1.40
2022-09-11T04:26:46.760Z,1.80
2022-09-11T04:29:27.998Z,1.15
2022-09-11T04:31:58.055Z,2.83
2022-09-11T04:34:32.176Z,2.25
2022-09-11T04:37:01.591Z,1.23
2022-09-11T04:39:31.899Z,1.02
2022-09-11T04:42:00.845Z,4.45
2022-09-11T04:44:30.068Z,1.73
2022-09-11T04:46:59.190Z,3.33
2022-09-11T04:49:27.742Z,2.08
2022-09-11T04:52:02.773Z,4.65
2022-09-11T04:54:33.869Z,1.10
2022-09-11T04:57:02.683Z,2.00
2022-09-11T04:59:31.992Z,1.58
2022-09-11T05:02:05.888Z,1.35
2022-09-11T05:04:38.572Z,1.98
2022-09-11T05:07:08.519Z,2.70
2022-09-11T05:09:37.070Z,3.13
2022-09-11T05:12:07.304Z,1.90
2022-09-11T05:14:37.994Z,2.40
2022-09-11T05:17:07.394Z,1.52
2022-09-11T05:19:40.248Z,1.58
2022-09-11T05:22:10.591Z,3.00
2022-09-11T05:24:43.339Z,3.55
2022-09-11T05:27:12.036Z,2.65
2022-09-11T05:29:40.636Z,2.58
2022-09-11T05:32:13.217Z,2.15
2022-09-11T05:34:43.634Z,1.58
2022-09-11T05:37:17.127Z,2.35
2022-09-11T05:42:17.689Z,3.20
2022-09-11T05:44:51.324Z,3.08
2022-09-11T05:47:20.125Z,1.92
2022-09-11T05:49:51.775Z,1.85
2022-09-11T05:52:21.853Z,2.42
2022-09-11T05:54:53.657Z,4.25
2022-09-11T05:57:22.416Z,3.33
2022-09-11T05:59:51.075Z,2.17
2022-09-11T06:02:20.320Z,3.25
2022-09-11T06:04:53.479Z,2.40
2022-09-11T06:07:26.864Z,3.25
2022-09-11T06:09:59.700Z,2.17
2022-09-11T06:12:32.259Z,4.00
2022-09-11T06:15:01.074Z,2.03
2022-09-11T06:17:29.855Z,1.75
2022-09-11T06:19:58.446Z,3.58
2022-09-11T06:22:33.553Z,2.67
2022-09-11T06:25:02.166Z,2.60
2022-09-11T06:27:31.220Z,2.05
2022-09-11T06:30:00.180Z,2.65
2022-09-11T06:32:28.856Z,3.10
2022-09-11T06:34:58.952Z,2.40
2022-09-11T06:37:29.095Z,1.58
2022-09-11T06:39:58.044Z,2.95
2022-09-11T06:42:29.267Z,1.67
2022-09-11T06:45:01.023Z,2.42
2022-09-11T06:47:31.439Z,2.10
2022-09-11T06:50:00.006Z,3.95
2022-09-11T06:52:37.094Z,2.55
2022-09-11T06:55:25.424Z,4.20
2022-09-11T06:58:03.735Z,2.17
2022-09-11T07:00:33.688Z,2.10
2022-09-11T07:03:03.314Z,4.50
2022-09-11T07:05:32.093Z,1.92
2022-09-11T07:08:04.174Z,3.05
2022-09-11T07:10:35.738Z,2.67
2022-09-11T07:13:04.465Z,1.60
2022-09-11T07:15:33.503Z,2.00
2022-09-11T07:18:03.743Z,3.88
2022-09-11T07:20:33.022Z,2.38
2022-09-11T07:23:01.816Z,2.88
2022-09-11T07:25:34.222Z,2.22
2022-09-11T07:28:02.976Z,2.83
2022-09-11T07:30:32.533Z,3.85
2022-09-11T07:33:02.159Z,2.33
2022-09-11T07:35:31.660Z,1.90
2022-09-11T07:38:00.316Z,3.35
2022-09-11T07:40:29.702Z,3.55
2022-09-11T07:43:03.842Z,2.67
2022-09-11T07:45:32.573Z,2.88
2022-09-11T07:48:02.759Z,3.05
2022-09-11T07:50:33.256Z,3.28
2022-09-11T07:53:02.249Z,2.05
2022-09-11T07:55:30.984Z,3.47
2022-09-11T07:57:59.776Z,2.13
2022-09-11T08:00:34.069Z,2.92
2022-09-11T08:03:15.076Z,3.65
2022-09-11T08:05:43.962Z,3.58
2022-09-11T08:08:14.028Z,4.70
2022-09-11T08:10:42.921Z,3.55
2022-09-11T08:13:12.555Z,4.68
2022-09-11T08:15:48.998Z,3.65
2022-09-11T08:18:17.570Z,3.72
2022-09-11T08:20:46.265Z,4.75
2022-09-11T08:23:15.650Z,2.60
2022-09-11T08:25:45.188Z,3.95
2022-09-11T08:28:14.190Z,4.30
2022-09-11T08:30:42.799Z,3.08
2022-09-11T08:33:14.172Z,3.33
2022-09-11T08:35:43.381Z,2.20
2022-09-11T08:38:11.970Z,4.32
2022-09-11T08:40:40.475Z,4.18
2022-09-11T08:43:24.521Z,4.40
2022-09-11T08:45:57.228Z,4.85
2022-09-11T08:48:33.673Z,3.83
2022-09-11T08:51:02.459Z,3.15
2022-09-11T08:53:33.189Z,3.65
2022-09-11T08:56:09.150Z,3.13
2022-09-11T08:58:45.720Z,4.20
2022-09-11T09:01:25.853Z,3.53
2022-09-11T09:04:32.201Z,5.85
2022-09-11T09:07:11.481Z,3.40
2022-09-11T09:09:50.972Z,4.30
2022-09-11T09:12:27.511Z,4.55
2022-09-11T09:15:17.005Z,3.50
2022-09-11T09:17:50.245Z,5.32
2022-09-11T09:20:23.140Z,3.92
2022-09-11T09:22:57.688Z,4.68
2022-09-11T09:25:28.975Z,3.67
2022-09-11T09:28:05.005Z,4.15
2022-09-11T09:30:45.025Z,4.78
2022-09-11T09:33:25.943Z,3.90
2022-09-11T09:35:57.811Z,5.20
2022-09-11T09:38:31.454Z,5.07
2022-09-11T09:41:25.944Z,4.18
2022-09-11T09:44:00.102Z,5.25
2022-09-11T09:46:36.035Z,4.15
2022-09-11T09:49:04.782Z,4.80
2022-09-11T09:51:35.423Z,5.22
2022-09-11T09:54:04.096Z,5.40
2022-09-11T09:56:35.572Z,4.78
2022-09-11T09:59:14.277Z,4.25
2022-09-11T10:01:48.338Z,5.28
2022-09-11T10:04:19.938Z,4.55
2022-09-11T10:06:52.026Z,5.53
2022-09-11T10:09:25.493Z,4.53
2022-09-11T10:12:01.838Z,6.03
2022-09-11T10:14:50.916Z,4.93
2022-09-11T10:17:24.856Z,5.53
2022-09-11T10:19:57.089Z,4.00
2022-09-11T10:22:32.497Z,5.00
2022-09-11T10:25:03.260Z,4.55
2022-09-11T10:27:36.463Z,5.77
2022-09-11T10:30:05.304Z,5.05
2022-09-11T10:32:37.348Z,6.00
2022-09-11T10:35:10.488Z,4.15
2022-09-11T10:37:40.356Z,6.00
2022-09-11T10:40:20.631Z,7.78
2022-09-11T10:42:50.371Z,4.53
2022-09-11T10:45:22.139Z,5.22
2022-09-11T10:47:50.462Z,4.82
2022-09-11T10:50:25.065Z,5.15
2022-09-11T10:53:13.667Z,5.03
2022-09-11T10:55:47.287Z,4.90
2022-09-11T10:58:20.020Z,8.85
2022-09-11T11:00:51.932Z,7.40
2022-09-11T11:03:23.234Z,4.57
2022-09-11T11:06:04.712Z,6.07
2022-09-11T11:08:57.515Z,5.85
2022-09-11T11:11:40.478Z,6.03
2022-09-11T11:14:37.999Z,5.35
2022-09-11T11:17:13.327Z,5.03
2022-09-11T11:19:58.631Z,5.43
2022-09-11T11:22:46.814Z,4.25
2022-09-11T11:25:22.949Z,4.90
2022-09-11T11:28:18.584Z,6.40
2022-09-11T11:30:55.419Z,4.82
2022-09-11T11:33:43.994Z,5.72
2022-09-11T11:36:26.960Z,6.38
2022-09-11T11:39:02.084Z,4.72
2022-09-11T11:41:35.826Z,5.45
2022-09-11T11:44:07.644Z,6.43
2022-09-11T11:46:39.465Z,6.80
2022-09-11T11:49:12.030Z,8.27
2022-09-11T11:51:49.070Z,5.57
2022-09-11T11:54:24.920Z,6.22
2022-09-11T11:56:59.047Z,6.00
2022-09-11T11:59:33.369Z,6.13
2022-09-11T12:02:05.322Z,5.93
2022-09-11T12:04:43.236Z,6.22
2022-09-11T12:07:18.017Z,6.40
2022-09-11T12:09:50.636Z,5.30
2022-09-11T12:12:22.097Z,5.75
2022-09-11T12:14:52.041Z,4.57
2022-09-11T12:17:25.636Z,4.70
2022-09-11T12:20:17.505Z,6.70
2022-09-11T12:26:07.002Z,4.78
2022-09-11T12:28:37.973Z,6.45
2022-09-11T12:31:07.873Z,5.10
2022-09-11T12:33:55.777Z,4.70
2022-09-11T12:36:50.368Z,5.80
2022-09-11T12:39:30.932Z,4.25
2022-09-11T12:42:38.291Z,3.72
2022-09-11T12:45:34.554Z,5.18
2022-09-11T12:48:08.853Z,5.35
2022-09-11T12:50:37.721Z,6.93
2022-09-11T12:53:08.904Z,6.53
2022-09-11T12:55:43.349Z,5.30
2022-09-11T12:58:35.272Z,5.90
2022-09-11T13:03:59.550Z,6.82
2022-09-11T13:06:39.862Z,4.72
2022-09-11T13:09:19.058Z,5.80
2022-09-11T13:11:49.197Z,7.55
2022-09-11T13:14:51.536Z,6.13
2022-09-11T13:17:30.666Z,6.15
2022-09-11T13:20:21.930Z,6.07
2022-09-11T13:22:54.836Z,6.30
2022-09-11T13:25:27.946Z,5.45
2022-09-11T13:28:00.121Z,6.05
2022-09-11T13:30:28.964Z,7.55
2022-09-11T13:33:07.876Z,7.68
2022-09-11T13:35:40.186Z,5.80
2022-09-11T13:38:12.271Z,4.45
2022-09-11T13:43:17.202Z,4.18
2022-09-11T13:45:46.180Z,4.90
2022-09-11T13:48:22.958Z,5.05
2022-09-11T13:50:52.286Z,4.95
2022-09-11T13:53:22.437Z,5.38
2022-09-11T13:55:51.298Z,4.25
2022-09-11T13:58:24.856Z,5.25
2022-09-11T14:00:54.997Z,4.03
2022-09-11T14:03:28.892Z,5.13
2022-09-11T14:05:59.194Z,4.25
2022-09-11T14:08:32.826Z,10.48
2022-09-11T14:11:08.127Z,4.05
2022-09-11T14:13:45.514Z,4.45
2022-09-11T14:16:23.478Z,4.38
2022-09-11T14:18:56.775Z,4.10
2022-09-11T14:21:32.465Z,4.60
2022-09-11T14:24:01.566Z,3.63
2022-09-11T14:26:42.338Z,5.68
2022-09-11T14:29:24.722Z,3.80
2022-09-11T14:31:53.927Z,3.22
2022-09-11T14:34:27.129Z,3.42
2022-09-11T14:36:59.882Z,4.15
2022-09-11T14:39:32.905Z,3.97
2022-09-11T14:42:01.876Z,3.15
2022-09-11T14:44:32.809Z,4.20
2022-09-11T14:47:01.046Z,5.68
2022-09-11T14:49:30.719Z,4.05
2022-09-11T14:52:00.682Z,4.60
2022-09-11T14:54:31.189Z,4.50
2022-09-11T14:56:59.709Z,3.42
2022-09-11T14:59:29.513Z,3.47
2022-09-11T15:01:58.733Z,3.30
2022-09-11T15:04:27.443Z,3.20
2022-09-11T15:06:57.250Z,3.47
2022-09-11T15:09:25.923Z,3.20
2022-09-11T15:11:54.171Z,3.60
2022-09-11T15:14:38.584Z,3.15
2022-09-11T15:17:13.394Z,3.35
2022-09-11T15:19:41.936Z,3.67
2022-09-11T15:22:11.813Z,3.58
2022-09-11T15:24:40.048Z,3.13
2022-09-11T15:27:10.394Z,4.20
2022-09-11T15:29:39.518Z,4.03
2022-09-11T15:32:09.353Z,4.63
2022-09-11T15:34:38.726Z,3.40
2022-09-11T15:37:07.307Z,4.80
2022-09-11T15:39:37.097Z,4.50
2022-09-11T15:42:06.257Z,4.63
2022-09-11T15:44:36.630Z,5.43
2022-09-11T15:47:05.227Z,4.30
2022-09-11T15:49:34.649Z,4.50
2022-09-11T15:52:03.198Z,5.75
2022-09-11T15:54:31.893Z,6.13
2022-09-11T15:57:01.566Z,4.90
2022-09-11T15:59:30.310Z,4.65
2022-09-11T16:01:59.400Z,6.03
2022-09-11T16:04:32.339Z,4.60
2022-09-11T16:07:01.017Z,5.00
2022-09-11T16:09:31.667Z,5.57
2022-09-11T16:12:01.790Z,11.18
2022-09-11T16:14:32.799Z,6.50
2022-09-11T16:17:02.374Z,7.32
2022-09-11T16:19:31.540Z,7.25
2022-09-11T16:22:02.602Z,6.22
2022-09-11T16:24:32.151Z,6.63
2022-09-11T16:27:02.461Z,7.30
2022-09-11T16:29:51.216Z,8.27
2022-09-11T16:32:28.514Z,6.50
2022-09-11T16:34:59.377Z,6.30
2022-09-11T16:37:28.234Z,6.63
2022-09-11T16:39:56.566Z,5.50
2022-09-11T16:42:26.509Z,5.72
2022-09-11T16:44:54.881Z,6.03
2022-09-11T16:47:23.137Z,5.88
2022-09-11T16:50:08.451Z,7.07
2022-09-11T16:52:37.096Z,5.25
2022-09-11T16:55:06.564Z,6.03
2022-09-11T16:57:36.274Z,4.93
2022-09-11T17:00:05.373Z,6.05
2022-09-11T17:02:33.617Z,6.18
2022-09-11T17:05:01.838Z,4.60
2022-09-11T17:07:30.315Z,4.85
2022-09-11T17:09:58.780Z,6.38
2022-09-11T17:12:27.823Z,5.05
2022-09-11T17:14:57.416Z,4.18
2022-09-11T17:17:25.935Z,4.30
2022-09-11T17:19:54.683Z,6.30
2022-09-11T17:22:22.852Z,5.15
2022-09-11T17:24:51.357Z,4.43
2022-09-11T17:27:19.535Z,4.28
2022-09-11T17:29:47.931Z,4.90
2022-09-11T17:32:29.159Z,4.35
2022-09-11T17:34:58.515Z,5.80
2022-09-11T17:37:27.702Z,7.13
2022-09-11T17:39:57.935Z,5.25
2022-09-11T17:42:28.824Z,6.25
2022-09-11T17:44:57.452Z,5.88
2022-09-11T17:47:30.461Z,4.25
2022-09-11T17:49:58.775Z,5.63
2022-09-11T17:52:26.999Z,4.90
2022-09-11T17:54:56.683Z,4.00
2022-09-11T17:57:25.543Z,5.88
2022-09-11T17:59:55.343Z,4.43
2022-09-11T18:02:23.713Z,6.15
2022-09-11T18:04:53.274Z,6.03
2022-09-11T18:07:22.076Z,5.55
2022-09-11T18:09:55.632Z,4.43
2022-09-11T18:12:25.781Z,5.03
2022-09-11T18:14:57.116Z,4.20
2022-09-11T18:17:25.393Z,4.18
2022-09-11T18:19:54.968Z,4.40
2022-09-11T18:22:23.853Z,4.40
2022-09-11T18:24:52.249Z,4.82
2022-09-11T18:27:20.462Z,5.40
2022-09-11T18:29:50.058Z,4.00
2022-09-11T18:32:19.957Z,4.55
2022-09-11T18:34:49.739Z,4.53
2022-09-11T18:37:19.736Z,4.80
2022-09-11T18:39:48.406Z,5.68
2022-09-11T18:42:18.033Z,4.28
2022-09-11T18:44:46.297Z,5.60
2022-09-11T18:47:14.484Z,3.25
2022-09-11T18:49:42.768Z,4.22
2022-09-11T18:52:11.071Z,5.68
2022-09-11T18:54:40.909Z,3.45
2022-09-11T18:57:09.148Z,4.13
2022-09-11T18:59:37.431Z,4.38
2022-09-11T19:02:05.782Z,5.60
2022-09-11T19:04:34.852Z,5.65
2022-09-11T19:07:03.147Z,4.93
2022-09-11T19:09:31.542Z,4.78
2022-09-11T19:12:03.486Z,3.80
2022-09-11T19:14:31.838Z,4.45
2022-09-11T19:17:00.460Z,3.10
2022-09-11T19:19:28.969Z,4.03
2022-09-11T19:21:57.146Z,3.65
2022-09-11T19:24:28.236Z,4.93
2022-09-11T19:26:56.620Z,3.20
2022-09-11T19:29:26.525Z,3.72
2022-09-11T19:31:54.813Z,5.20
2022-09-11T19:34:24.517Z,9.68
2022-09-11T19:36:53.311Z,252.75
2022-09-11T19:39:21.884Z,143.30
2022-09-11T19:41:50.286Z,181.52
2022-09-11T19:44:19.808Z,142.75
2022-09-11T19:46:53.401Z,159.60
2022-09-11T19:49:21.712Z,149.23
2022-09-11T19:51:53.174Z,161.70
2022-09-11T19:54:22.441Z,99.18
2022-09-11T19:56:51.082Z,329.77
2022-09-11T19:59:19.560Z,148.23
2022-09-11T20:01:49.228Z,122.15
2022-09-11T20:04:19.062Z,138.90
2022-09-11T20:09:31.732Z,60.42
2022-09-11T20:12:01.522Z,36.20
2022-09-11T20:14:31.079Z,32.55
2022-09-11T20:17:01.644Z,38.35
2022-09-11T20:19:30.028Z,43.95
2022-09-11T20:21:59.934Z,133.45
2022-09-11T20:24:28.969Z,212.43
2022-09-11T20:26:57.265Z,176.68
2022-09-11T20:29:25.504Z,211.93
2022-09-11T20:31:55.144Z,203.85
2022-09-11T20:34:27.952Z,143.00
2022-09-11T20:37:00.702Z,100.70
2022-09-11T20:39:29.214Z,55.53
2022-09-11T20:41:57.500Z,39.15
2022-09-11T20:44:26.696Z,23.27
2022-09-11T20:46:54.962Z,16.65
2022-09-11T20:49:24.680Z,12.43
2022-09-11T20:51:52.924Z,10.98
2022-09-11T20:54:21.182Z,7.35
2022-09-11T20:56:49.370Z,6.60
2022-09-11T20:59:17.611Z,4.45
2022-09-11T21:01:46.019Z,4.45
2022-09-11T21:04:14.345Z,6.85
2022-09-11T21:06:43.890Z,4.25
2022-09-11T21:09:13.072Z,4.18
2022-09-11T21:11:42.567Z,3.53
2022-09-11T21:14:12.046Z,4.30
2022-09-11T21:16:40.394Z,3.88
2022-09-11T21:19:09.257Z,3.50
2022-09-11T21:21:40.147Z,4.63
2022-09-11T21:24:12.814Z,3.75
2022-09-11T21:26:41.244Z,5.15
2022-09-11T21:29:12.391Z,3.67
2022-09-11T21:31:40.983Z,3.13
2022-09-11T21:34:10.098Z,5.18
2022-09-11T21:36:38.680Z,3.83
2022-09-11T21:39:07.490Z,3.83
2022-09-11T21:41:37.425Z,4.45
2022-09-11T21:44:06.189Z,2.85
2022-09-11T21:46:34.825Z,4.75
2022-09-11T21:49:03.441Z,5.10
2022-09-11T21:51:32.029Z,2.90
2022-09-11T21:54:01.920Z,3.35
2022-09-11T21:56:31.426Z,3.35
2022-09-11T21:59:02.542Z,3.58
2022-09-11T22:01:32.117Z,3.25
2022-09-11T22:04:01.301Z,2.97
2022-09-11T22:06:30.229Z,3.15
2022-09-11T22:08:58.897Z,3.00
2022-09-11T22:11:27.543Z,2.60
2022-09-11T22:13:56.710Z,2.65
2022-09-11T22:16:26.768Z,2.97
2022-09-11T22:18:56.933Z,3.10
2022-09-11T22:21:25.989Z,3.15
2022-09-11T22:23:56.008Z,3.33
2022-09-11T22:26:24.711Z,3.00
2022-09-11T22:28:53.562Z,2.33
2022-09-11T22:31:23.778Z,2.85
2022-09-11T22:33:54.112Z,3.65
2022-09-11T22:36:23.992Z,1.88
2022-09-11T22:38:52.565Z,3.88
2022-09-11T22:41:21.399Z,4.07
2022-09-11T22:43:50.126Z,2.00
2022-09-11T22:46:19.782Z,2.88
2022-09-11T22:48:48.363Z,4.20
2022-09-11T22:51:18.420Z,2.88
2022-09-11T22:53:47.140Z,2.17
2022-09-11T22:56:15.754Z,3.45
2022-09-11T22:58:44.338Z,2.50
2022-09-11T23:01:16.756Z,2.60
2022-09-11T23:03:48.315Z,2.03
2022-09-11T23:06:35.855Z,3.00
2022-09-11T23:09:04.845Z,1.95
2022-09-11T23:11:33.450Z,2.35
2022-09-11T23:14:02.199Z,2.80
2022-09-11T23:16:31.544Z,4.07
2022-09-11T23:19:01.190Z,4.32
2022-09-11T23:21:31.614Z,2.15
2022-09-11T23:24:00.595Z,2.90
2022-09-11T23:26:30.238Z,2.83
2022-09-11T23:28:58.838Z,1.88
2022-09-11T23:31:28.835Z,3.58
2022-09-11T23:33:58.731Z,2.03
2022-09-11T23:36:28.517Z,4.47
2022-09-11T23:38:58.895Z,2.05
2022-09-11T23:41:27.507Z,2.10
2022-09-11T23:43:56.333Z,2.15
2022-09-11T23:46:24.910Z,3.20
2022-09-11T23:48:53.801Z,2.67
2022-09-11T23:51:22.546Z,2.20
2022-09-11T23:53:51.939Z,3.30
2022-09-11T23:56:22.507Z,3.33
2022-09-11T23:58:51.520Z,2.35
